Time;durP1;ratioP1;P1;durP2;ratioP2;P2;SDS_P1;SDS_P2;PMS_P1;PMS_P2;Temp;Humidity;BMP_temperature;BMP_pressure;BME280_temperature;BME280_humidity;BME280_pressure;Samples;Min_cycle;Max_cycle;Signal;HPM_P1;HPM_P2
2022/04/29 00:02:00;;;;;;;32.17;20.33;;;;;;;12.08;78.89;101622.97;5042108;28;20024;-74
2022/04/29 00:04:25;;;;;;;35.10;21.85;;;;;;;12.07;78.89;101626.06;5056826;28;20039;-73
2022/04/29 00:06:51;;;;;;;33.78;21.67;;;;;;;12.06;79.43;101621.56;5028625;28;20021;-74
2022/04/29 00:09:17;;;;;;;40.70;22.52;;;;;;;11.99;79.42;101623.81;5048788;28;20032;-74
2022/04/29 00:11:43;;;;;;;34.97;21.42;;;;;;;11.96;80.19;101614.06;5085230;28;20028;-74
2022/04/29 00:14:09;;;;;;;40.20;21.90;;;;;;;11.90;79.94;101615.19;5044141;28;20032;-74
2022/04/29 00:16:34;;;;;;;37.50;22.92;;;;;;;11.90;80.35;101614.34;5062017;28;20021;-74
2022/04/29 00:19:00;;;;;;;33.97;21.60;;;;;;;11.87;81.29;101620.44;5089862;28;20035;-74
2022/04/29 00:21:25;;;;;;;34.13;20.95;;;;;;;11.80;80.80;101626.25;5058923;28;20058;-74
2022/04/29 00:23:51;;;;;;;38.78;23.10;;;;;;;11.79;81.40;101621.81;5042258;28;20051;-74
2022/04/29 00:26:16;;;;;;;40.05;22.48;;;;;;;11.79;81.86;101607.88;5058609;28;20122;-74
2022/04/29 00:28:42;;;;;;;35.33;22.88;;;;;;;11.75;81.67;101624.28;5076791;28;20025;-74
2022/04/29 00:31:07;;;;;;;41.35;23.13;;;;;;;11.68;81.62;101629.28;5071073;28;20035;-74
2022/04/29 00:33:33;;;;;;;44.53;23.95;;;;;;;11.65;82.33;101629.84;5087097;28;20028;-74
2022/04/29 00:35:58;;;;;;;41.85;23.05;;;;;;;11.58;82.38;101624.50;5066375;28;20024;-74
2022/04/29 00:38:24;;;;;;;40.85;23.40;;;;;;;11.55;83.29;101624.25;5077374;28;20029;-74
2022/04/29 00:40:49;;;;;;;43.03;23.00;;;;;;;11.53;82.78;101623.66;5050845;28;20362;-74
2022/04/29 00:43:14;;;;;;;38.60;21.55;;;;;;;11.51;83.09;101614.78;5055540;28;20020;-74
2022/04/29 00:45:40;;;;;;;38.38;22.80;;;;;;;11.47;83.09;101638.69;5020723;28;20089;-74
2022/04/29 00:48:08;;;;;;;41.55;23.30;;;;;;;11.42;83.70;101628.34;5055533;28;20158;-74
2022/04/29 00:50:34;;;;;;;39.42;23.02;;;;;;;11.40;83.25;101625.88;5058466;28;20024;-74
2022/04/29 00:52:59;;;;;;;42.53;23.02;;;;;;;11.35;83.71;101631.41;5041346;28;20036;-74
2022/04/29 00:55:25;;;;;;;44.28;24.30;;;;;;;11.30;84.80;101627.75;5075074;28;20055;-74
2022/04/29 00:57:52;;;;;;;39.25;22.63;;;;;;;11.32;83.91;101631.94;5058734;28;20024;-75
2022/04/29 01:00:18;;;;;;;41.58;24.05;;;;;;;11.28;84.50;101627.19;5058069;28;20078;-74
2022/04/29 01:02:47;;;;;;;40.85;22.48;;;;;;;11.25;84.87;101630.50;5063809;28;20565;-74
2022/04/29 01:05:15;;;;;;;45.05;23.23;;;;;;;11.19;85.20;101626.88;5096052;28;20028;-74
2022/04/29 01:07:42;;;;;;;40.47;22.65;;;;;;;11.16;85.00;101621.84;5059572;28;20115;-74
2022/04/29 01:10:08;;;;;;;38.72;23.67;;;;;;;11.17;86.18;101621.59;5088103;28;20028;-74
2022/04/29 01:12:35;;;;;;;40.55;22.10;;;;;;;11.18;84.46;101617.69;5077104;28;20028;-74
2022/04/29 01:15:06;;;;;;;42.33;23.75;;;;;;;11.12;85.01;101607.66;5058200;28;20517;-74
2022/04/29 01:17:34;;;;;;;45.15;21.58;;;;;;;11.11;84.67;101619.06;5070419;28;20029;-73
2022/04/29 01:20:12;;;;;;;38.03;21.35;;;;;;;11.11;84.43;101608.75;5075677;28;20388;-74
2022/04/29 01:22:38;;;;;;;44.25;24.27;;;;;;;11.05;86.73;101615.41;5058053;28;20107;-74
2022/04/29 01:25:04;;;;;;;37.78;21.45;;;;;;;11.02;85.06;101613.19;5075889;28;20028;-73
2022/04/29 01:27:29;;;;;;;41.50;22.55;;;;;;;10.98;85.95;101611.19;5046503;28;20025;-73
2022/04/29 01:30:07;;;;;;;42.08;22.65;;;;;;;10.98;85.00;101608.41;5026279;28;20238;-74
2022/04/29 01:32:33;;;;;;;41.97;24.67;;;;;;;10.93;86.91;101606.47;5044601;28;20036;-74
2022/04/29 01:34:58;;;;;;;43.83;23.10;;;;;;;10.96;85.46;101600.38;5040812;28;20094;-74
2022/04/29 01:37:24;;;;;;;48.85;25.05;;;;;;;10.93;88.17;101598.97;5050746;28;20695;-74
2022/04/29 01:39:49;;;;;;;45.85;23.98;;;;;;;10.87;86.73;101594.47;5038532;28;20033;-74
2022/04/29 01:42:16;;;;;;;39.60;21.77;;;;;;;10.92;85.00;101593.66;5032115;28;20029;-74
2022/04/29 01:44:41;;;;;;;36.05;20.98;;;;;;;10.92;85.24;101597.28;5043832;28;20020;-74
2022/04/29 01:47:07;;;;;;;37.72;21.63;;;;;;;10.90;86.32;101596.72;5096195;28;20028;-74
2022/04/29 01:49:32;;;;;;;35.53;20.67;;;;;;;10.89;84.99;101589.50;5059992;28;20029;-74
2022/04/29 01:51:59;;;;;;;34.65;20.38;;;;;;;10.90;85.40;101598.66;5102424;28;20032;-74
2022/04/29 01:54:25;;;;;;;45.45;23.75;;;;;;;10.85;86.75;101588.34;5078633;28;20040;-74
2022/04/29 01:56:52;;;;;;;36.67;20.98;;;;;;;10.87;85.45;101586.16;5079776;28;20488;-74
2022/04/29 01:59:19;;;;;;;35.22;20.98;;;;;;;10.88;85.59;101587.81;5087573;28;20082;-74
2022/04/29 02:01:45;;;;;;;43.40;22.58;;;;;;;10.88;85.76;101573.09;5068191;28;20024;-74
2022/04/29 02:04:11;;;;;;;40.70;22.52;;;;;;;10.85;86.10;101576.41;5097824;28;20106;-74
2022/04/29 02:06:38;;;;;;;38.97;23.13;;;;;;;10.82;86.84;101566.66;5109863;28;20032;-74
2022/04/29 02:09:06;;;;;;;41.40;24.23;;;;;;;10.82;87.83;101560.28;5085122;28;20027;-74
2022/04/29 02:11:32;;;;;;;46.40;21.60;;;;;;;10.84;86.59;101552.50;5091140;28;20427;-74
2022/04/29 02:13:57;;;;;;;44.80;23.15;;;;;;;10.78;87.50;101545.22;5065195;28;20028;-74
2022/04/29 02:16:23;;;;;;;42.42;23.48;;;;;;;10.75;87.73;101535.50;5068144;28;20034;-74
2022/04/29 02:18:49;;;;;;;47.70;22.38;;;;;;;10.72;87.99;101533.25;5090359;28;20038;-74
2022/04/29 02:21:14;;;;;;;43.47;23.65;;;;;;;10.71;88.71;101532.44;5101508;28;20026;-74
2022/04/29 02:23:40;;;;;;;40.13;22.27;;;;;;;10.70;87.30;101527.16;5102094;28;20110;-74
2022/04/29 02:26:05;;;;;;;40.75;21.92;;;;;;;10.71;86.89;101534.38;5099108;28;20040;-74
2022/04/29 02:28:32;;;;;;;39.90;21.50;;;;;;;10.70;86.39;101536.31;5080986;28;20043;-74
2022/04/29 02:30:58;;;;;;;42.33;21.27;;;;;;;10.70;85.83;101535.50;5110116;28;20020;-74
2022/04/29 02:33:23;;;;;;;38.40;22.35;;;;;;;10.61;86.68;101531.53;5091691;28;20028;-74
2022/04/29 02:35:49;;;;;;;39.95;21.50;;;;;;;10.61;86.04;101531.53;5097587;28;20085;-74
2022/04/29 02:38:15;;;;;;;43.42;22.13;;;;;;;10.54;86.80;101539.28;5083111;28;20078;-74
2022/04/29 02:40:40;;;;;;;41.40;22.88;;;;;;;10.48;86.89;101541.19;5080886;28;20374;-74
2022/04/29 02:43:06;;;;;;;41.92;22.00;;;;;;;10.41;87.46;101544.19;5080793;28;20089;-74
2022/04/29 02:45:32;;;;;;;47.28;24.65;;;;;;;10.36;88.04;101540.53;5109287;28;20085;-74
2022/04/29 02:47:58;;;;;;;39.30;22.33;;;;;;;10.33;87.17;101533.59;5130612;27;20030;-74
2022/04/29 02:50:24;;;;;;;38.85;21.27;;;;;;;10.29;87.10;101536.06;5089017;28;20086;-74
2022/04/29 02:52:50;;;;;;;38.38;20.75;;;;;;;10.28;87.63;101536.34;5080571;28;20028;-74
2022/04/29 02:55:15;;;;;;;39.70;21.38;;;;;;;10.23;87.50;101547.38;5087979;28;20557;-74
2022/04/29 02:57:41;;;;;;;41.95;22.15;;;;;;;10.19;87.93;101540.69;5100429;28;20036;-74
2022/04/29 03:00:07;;;;;;;41.35;21.23;;;;;;;10.16;87.43;101549.53;5098552;28;20361;-74
2022/04/29 03:02:32;;;;;;;44.13;22.48;;;;;;;10.10;87.60;101547.84;5101136;28;20133;-74
2022/04/29 03:04:57;;;;;;;44.92;22.90;;;;;;;10.04;88.00;101550.56;5099708;28;20027;-74
2022/04/29 03:07:23;;;;;;;45.70;23.85;;;;;;;10.01;89.29;101545.53;5083929;28;20032;-74
2022/04/29 03:09:48;;;;;;;41.97;23.20;;;;;;;9.95;89.03;101535.50;5107922;28;20365;-74
2022/04/29 03:12:15;;;;;;;50.10;26.27;;;;;;;9.87;90.70;101544.31;5102213;28;20027;-74
2022/04/29 03:14:41;;;;;;;40.65;21.70;;;;;;;9.86;89.13;101537.06;5098230;28;20028;-74
2022/04/29 03:17:06;;;;;;;44.80;22.20;;;;;;;9.85;88.81;101524.31;5083174;28;20034;-74
2022/04/29 03:19:31;;;;;;;42.92;21.30;;;;;;;9.87;88.14;101536.00;5090211;28;20020;-74
2022/04/29 03:21:57;;;;;;;38.80;20.92;;;;;;;9.82;88.74;101527.63;5079948;28;20062;-74
2022/04/29 03:24:22;;;;;;;44.50;23.23;;;;;;;9.82;88.39;101522.06;5070217;28;20024;-74
2022/04/29 03:26:48;;;;;;;43.28;20.73;;;;;;;9.84;87.40;101512.38;5111364;28;20054;-73
2022/04/29 03:29:14;;;;;;;36.63;21.20;;;;;;;9.82;87.92;101514.59;5065214;28;20154;-74
2022/04/29 03:31:39;;;;;;;39.03;20.35;;;;;;;9.83;87.22;101505.19;5110752;28;20031;-74
2022/04/29 03:34:05;;;;;;;34.72;19.70;;;;;;;9.83;86.09;101504.31;5099352;28;20089;-74
2022/04/29 03:36:30;;;;;;;37.45;19.23;;;;;;;9.81;85.68;101506.53;5082652;28;20024;-74
2022/04/29 03:38:56;;;;;;;38.15;20.23;;;;;;;9.75;86.09;101507.56;5097891;28;20030;-74
2022/04/29 03:41:22;;;;;;;41.92;22.58;;;;;;;9.74;86.46;101515.06;5097677;28;20028;-73
2022/04/29 03:43:47;;;;;;;40.40;21.35;;;;;;;9.61;87.38;101512.72;5095457;28;20038;-74
2022/04/29 03:46:13;;;;;;;41.80;21.60;;;;;;;9.58;87.64;101502.16;5080238;28;20032;-74
2022/04/29 03:51:22;;;;;;;38.78;21.15;;;;;;;9.53;88.17;101508.50;5111210;28;20028;-74
2022/04/29 03:53:48;;;;;;;42.33;22.80;;;;;;;9.53;88.41;101502.13;5097766;28;20061;-74
2022/04/29 03:56:15;;;;;;;45.35;23.95;;;;;;;9.46;91.34;101509.81;5079227;28;20032;-73
2022/04/29 03:58:40;;;;;;;43.78;21.92;;;;;;;9.47;88.72;101506.78;5062745;28;20100;-73
2022/04/29 04:01:06;;;;;;;39.80;21.20;;;;;;;9.45;88.16;101511.75;5126705;27;20388;-73
2022/04/29 04:03:31;;;;;;;45.88;23.40;;;;;;;9.46;88.10;101507.88;5109775;27;20031;-73
2022/04/29 04:08:41;;;;;;;44.30;22.77;;;;;;;9.41;88.58;101510.59;5082089;28;20469;-74
2022/04/29 04:11:06;;;;;;;48.85;26.35;;;;;;;9.34;92.13;101515.53;5110372;28;20055;-74
2022/04/29 04:13:32;;;;;;;47.20;25.52;;;;;;;9.26;91.80;101514.06;5097065;28;20077;-74
2022/04/29 04:15:57;;;;;;;39.63;22.00;;;;;;;9.30;89.34;101522.69;5078629;28;20688;-74
2022/04/29 04:18:23;;;;;;;45.80;22.88;;;;;;;9.33;89.14;101519.38;5104515;28;20043;-74
2022/04/29 04:20:48;;;;;;;40.78;22.80;;;;;;;9.29;89.26;101521.00;5096971;28;20031;-74
2022/04/29 04:23:14;;;;;;;42.47;22.90;;;;;;;9.30;89.19;101520.72;5089896;28;20581;-74
2022/04/29 04:25:40;;;;;;;41.35;22.77;;;;;;;9.29;89.55;101516.28;5078839;28;20024;-74
2022/04/29 04:28:05;;;;;;;53.88;23.73;;;;;;;9.32;89.24;101520.50;5079536;28;20485;-74
2022/04/29 04:30:31;;;;;;;50.15;25.20;;;;;;;9.29;90.59;101516.28;5102181;28;20038;-74
2022/04/29 04:32:56;;;;;;;42.60;23.35;;;;;;;9.22;90.37;101523.13;5088470;28;20055;-74
2022/04/29 04:35:22;;;;;;;46.83;24.05;;;;;;;9.18;89.86;101518.13;5109279;28;20031;-74
2022/04/29 04:37:48;;;;;;;51.53;26.55;;;;;;;9.10;91.79;101521.34;5096775;28;20024;-74
2022/04/29 04:40:13;;;;;;;47.33;25.58;;;;;;;9.11;91.79;101520.28;5118320;27;20034;-74
2022/04/29 04:42:44;;;;;;;46.20;21.92;;;;;;;9.11;90.65;101520.28;5084301;28;20110;-74
2022/04/29 04:45:09;;;;;;;41.58;22.80;;;;;;;9.10;91.39;101528.84;5103985;28;20055;-73
2022/04/29 04:47:35;;;;;;;46.53;23.50;;;;;;;9.10;91.24;101535.22;5079567;28;20032;-74
2022/04/29 04:50:01;;;;;;;48.67;23.58;;;;;;;9.11;89.35;101530.50;5078204;28;20024;-74
2022/04/29 04:52:26;;;;;;;40.35;22.23;;;;;;;9.09;89.37;101536.31;5125351;27;20035;-73
2022/04/29 04:54:51;;;;;;;44.80;22.75;;;;;;;9.08;89.57;101537.41;5056691;28;20028;-74
2022/04/29 04:57:17;;;;;;;49.00;24.85;;;;;;;9.07;90.99;101543.22;5058093;28;20031;-74
2022/04/29 04:59:42;;;;;;;43.22;23.75;;;;;;;9.03;91.49;101550.38;5064233;28;20484;-74
2022/04/29 05:02:08;;;;;;;40.65;21.83;;;;;;;9.06;89.90;101547.91;5059795;28;20058;-74
2022/04/29 05:04:33;;;;;;;46.85;25.70;;;;;;;9.02;91.62;101554.22;5081130;28;20028;-74
2022/04/29 05:06:59;;;;;;;47.47;23.92;;;;;;;9.02;90.16;101560.59;5085408;28;20024;-74
2022/04/29 05:09:24;;;;;;;44.38;22.98;;;;;;;9.01;90.47;101566.41;5102378;28;20037;-74
2022/04/29 05:11:50;;;;;;;49.00;25.08;;;;;;;9.00;90.97;101564.72;5103474;28;20028;-74
2022/04/29 05:14:15;;;;;;;48.88;25.27;;;;;;;9.01;92.22;101558.94;5102526;28;20034;-74
2022/04/29 05:16:41;;;;;;;47.92;24.88;;;;;;;8.96;92.08;101567.19;5068383;28;20054;-74
2022/04/29 05:19:06;;;;;;;51.83;24.42;;;;;;;8.94;92.81;101563.81;5063787;28;20032;-74
2022/04/29 05:21:32;;;;;;;41.75;23.17;;;;;;;8.94;91.93;101569.34;5061509;28;20036;-74
2022/04/29 05:23:58;;;;;;;45.35;24.15;;;;;;;9.02;92.16;101565.31;5080584;28;20400;-74
2022/04/29 05:26:23;;;;;;;50.75;25.88;;;;;;;9.03;94.18;101562.28;5103185;28;20043;-74
2022/04/29 05:28:48;;;;;;;43.72;23.60;;;;;;;9.08;91.47;101564.28;5065557;28;20024;-75
2022/04/29 05:31:14;;;;;;;60.08;31.20;;;;;;;9.01;96.91;101567.25;5068433;28;20054;-74
2022/04/29 05:33:40;;;;;;;46.15;25.83;;;;;;;8.99;95.36;101574.97;5081338;28;20024;-74
2022/04/29 05:36:06;;;;;;;59.83;27.92;;;;;;;9.05;97.40;101568.41;5080201;27;20032;-74
2022/04/29 05:43:59;;;;;;;63.40;32.08;;;;;;;9.18;100.00;101570.78;5079396;28;20115;-74
2022/04/29 05:46:25;;;;;;;59.55;31.08;;;;;;;9.25;100.00;101578.91;5065141;28;20024;-74
2022/04/29 05:48:50;;;;;;;57.22;30.75;;;;;;;9.31;100.00;101579.81;5048327;28;20024;-74
2022/04/29 05:51:16;;;;;;;61.63;29.35;;;;;;;9.39;100.00;101587.66;5095122;28;20036;-74
2022/04/29 05:53:41;;;;;;;52.00;26.83;;;;;;;9.50;100.00;101600.56;5099715;28;20032;-74
2022/04/29 05:56:07;;;;;;;52.33;29.88;;;;;;;9.59;100.00;101596.19;5099770;28;20542;-74
2022/04/29 05:58:32;;;;;;;51.65;27.73;;;;;;;9.69;100.00;101597.41;5099852;28;20032;-74
2022/04/29 06:00:58;;;;;;;58.80;30.92;;;;;;;9.73;100.00;101601.34;5081692;28;20028;-74
2022/04/29 06:03:24;;;;;;;55.85;29.27;;;;;;;9.81;100.00;101610.03;5074499;28;20031;-74
2022/04/29 06:05:50;;;;;;;59.80;30.35;;;;;;;9.89;100.00;101602.31;5097859;28;20028;-74
2022/04/29 06:08:15;;;;;;;57.15;29.05;;;;;;;9.98;98.97;101600.75;5064680;28;20093;-74
2022/04/29 06:10:40;;;;;;;53.05;29.13;;;;;;;10.01;99.26;101606.59;5078058;28;20637;-74
2022/04/29 06:13:08;;;;;;;52.70;28.08;;;;;;;10.11;97.43;101613.34;5081393;28;20032;-74
2022/04/29 06:15:34;;;;;;;46.25;25.02;;;;;;;10.16;95.12;101619.78;5107017;28;20503;-74
2022/04/29 06:17:59;;;;;;;48.97;26.95;;;;;;;10.20;96.21;101618.16;5071330;28;20016;-76
2022/04/29 06:20:25;;;;;;;45.08;24.90;;;;;;;10.23;95.16;101625.94;5064158;28;20032;-70
2022/04/29 06:22:59;;;;;;;43.70;25.58;;;;;;;10.28;93.50;101628.81;5109597;28;20096;-80
2022/04/29 06:25:25;;;;;;;56.55;27.88;;;;;;;10.29;94.03;101627.69;5032739;28;20523;-69
2022/04/29 06:27:50;;;;;;;45.38;25.55;;;;;;;10.35;93.14;101628.56;5072214;28;20032;-69
2022/04/29 06:30:16;;;;;;;52.58;26.67;;;;;;;10.37;95.12;101625.53;5095423;28;20036;-69
2022/04/29 06:32:41;;;;;;;54.00;27.58;;;;;;;10.43;95.66;101630.03;5084288;28;20023;-69
2022/04/29 06:35:07;;;;;;;54.97;27.95;;;;;;;10.46;96.26;101630.31;5064162;28;20031;-70
2022/04/29 06:37:34;;;;;;;44.28;24.15;;;;;;;10.55;93.83;101635.38;5110854;28;20031;-70
2022/04/29 06:39:59;;;;;;;47.40;24.92;;;;;;;10.64;94.69;101633.78;5081943;28;20106;-69
2022/04/29 06:42:25;;;;;;;53.60;28.80;;;;;;;10.78;96.16;101623.91;5080748;28;20028;-69
2022/04/29 06:44:51;;;;;;;46.33;27.40;;;;;;;10.93;95.79;101634.25;5063647;28;20035;-70
2022/04/29 06:47:16;;;;;;;52.03;28.85;;;;;;;11.07;94.51;101632.66;5084041;28;20023;-70
2022/04/29 06:49:43;;;;;;;55.20;28.25;;;;;;;11.26;94.96;101627.47;5062952;28;20115;-69
2022/04/29 06:52:09;;;;;;;55.35;30.10;;;;;;;11.44;94.38;101628.09;5076601;28;20492;-70
2022/04/29 06:54:34;;;;;;;52.08;29.85;;;;;;;11.61;93.66;101623.13;5063799;28;20044;-70
2022/04/29 06:57:00;;;;;;;53.97;28.55;;;;;;;11.80;92.48;101631.81;5072693;28;20118;-70
2022/04/29 06:59:26;;;;;;;46.25;27.00;;;;;;;12.01;90.81;101629.94;5066732;28;20040;-71
2022/04/29 07:01:52;;;;;;;46.45;27.73;;;;;;;12.21;90.27;101629.13;5069343;28;20019;-71
2022/04/29 07:04:17;;;;;;;60.10;29.35;;;;;;;12.40;90.53;101627.44;5060707;28;20462;-70
2022/04/29 07:06:43;;;;;;;47.83;28.13;;;;;;;12.58;88.94;101628.00;5071098;28;20046;-73
2022/04/29 07:09:09;;;;;;;51.33;29.45;;;;;;;12.72;87.83;101629.09;5089446;28;20488;-72
2022/04/29 07:11:34;;;;;;;45.35;27.73;;;;;;;12.89;86.73;101631.56;5072182;28;20387;-72
2022/04/29 07:14:00;;;;;;;46.33;28.30;;;;;;;13.05;86.99;101632.34;5065964;28;20134;-72
2022/04/29 07:16:25;;;;;;;51.53;30.08;;;;;;;13.19;86.74;101634.25;5084176;27;20055;-73
2022/04/29 07:18:51;;;;;;;58.42;28.92;;;;;;;13.36;85.58;101630.31;5081051;28;20028;-73
2022/04/29 07:21:17;;;;;;;48.80;28.33;;;;;;;13.57;84.41;101629.13;5071199;28;20070;-74
2022/04/29 07:23:42;;;;;;;44.42;27.23;;;;;;;13.74;83.82;101636.28;5087580;28;20028;-75
2022/04/29 07:26:08;;;;;;;49.70;28.15;;;;;;;13.90;82.25;101637.88;5054615;28;20392;-72
2022/04/29 07:28:33;;;;;;;52.08;28.35;;;;;;;14.00;82.65;101634.97;5095400;28;20491;-74
2022/04/29 07:31:00;;;;;;;52.03;28.88;;;;;;;14.10;81.41;101628.50;5071176;28;20024;-73
2022/04/29 07:33:25;;;;;;;49.92;29.38;;;;;;;14.16;80.17;101643.28;5094815;28;20508;-73
2022/04/29 07:44:04;;;;;;;49.05;29.63;;;;;;;14.79;77.51;101643.28;5083724;28;20074;-73
2022/04/29 07:46:29;;;;;;;50.65;29.42;;;;;;;14.85;78.32;101636.53;5092004;28;20123;-73
2022/04/29 07:48:55;;;;;;;52.08;29.30;;;;;;;14.96;76.31;101642.84;5097312;28;20024;-74
2022/04/29 07:51:20;;;;;;;52.55;30.73;;;;;;;15.11;75.47;101637.06;5103454;28;20032;-73
2022/04/29 07:53:46;;;;;;;47.83;30.23;;;;;;;15.19;76.02;101638.41;5086700;28;20499;-73
2022/04/29 07:56:11;;;;;;;47.40;29.30;;;;;;;15.30;74.80;101641.91;5088578;28;20047;-74
2022/04/29 07:58:37;;;;;;;45.95;28.83;;;;;;;15.42;75.25;101642.31;5072283;28;20032;-73
2022/04/29 08:01:04;;;;;;;47.78;29.67;;;;;;;15.54;75.92;101636.25;5092476;28;20016;-74
2022/04/29 08:03:29;;;;;;;54.00;29.25;;;;;;;15.64;73.41;101638.94;5078157;28;20027;-74
2022/04/29 08:05:55;;;;;;;52.42;29.48;;;;;;;15.82;72.97;101642.91;5112794;28;20023;-73
2022/04/29 08:08:21;;;;;;;49.63;29.90;;;;;;;15.90;72.58;101647.00;5081030;28;20059;-73
2022/04/29 08:10:46;;;;;;;45.08;27.60;;;;;;;16.01;72.17;101637.31;5065494;28;20031;-73
2022/04/29 08:13:12;;;;;;;52.63;29.98;;;;;;;16.05;70.07;101633.63;5088045;28;20384;-73
2022/04/29 08:15:37;;;;;;;47.58;28.75;;;;;;;16.17;70.84;101641.53;5062436;28;20040;-73
2022/04/29 08:18:04;;;;;;;47.15;28.92;;;;;;;16.12;70.65;101644.44;5089817;28;20027;-73
2022/04/29 08:20:30;;;;;;;48.30;30.85;;;;;;;16.26;70.31;101639.72;5099362;28;20035;-73
2022/04/29 08:22:55;;;;;;;47.47;29.30;;;;;;;16.37;70.93;101646.00;5078881;28;20024;-73
2022/04/29 08:25:21;;;;;;;47.65;29.08;;;;;;;16.47;70.52;101637.41;5074311;28;20036;-73
2022/04/29 08:27:47;;;;;;;48.47;28.77;;;;;;;16.61;69.92;101650.66;5106048;28;20035;-73
2022/04/29 08:30:13;;;;;;;44.70;27.65;;;;;;;16.58;68.54;101648.47;5082961;28;20497;-74
2022/04/29 08:32:39;;;;;;;47.88;29.90;;;;;;;16.61;67.54;101648.66;5112209;28;20035;-73
2022/04/29 08:35:06;;;;;;;53.88;29.90;;;;;;;16.60;67.36;101648.97;5094156;28;20073;-73
2022/04/29 08:37:32;;;;;;;47.58;30.13;;;;;;;16.65;68.32;101658.13;5096717;28;20046;-73
2022/04/29 08:39:59;;;;;;;43.42;28.20;;;;;;;16.69;68.37;101653.56;5101474;28;20388;-73
2022/04/29 08:42:24;;;;;;;43.65;28.08;;;;;;;16.83;69.54;101650.84;5087373;28;20032;-73
2022/04/29 08:44:50;;;;;;;49.15;29.13;;;;;;;16.88;68.65;101656.34;5080612;28;20030;-73
2022/04/29 08:47:15;;;;;;;47.75;28.75;;;;;;;16.94;69.23;101648.69;5078528;28;20039;-73
2022/04/29 08:49:41;;;;;;;46.30;28.13;;;;;;;17.03;69.00;101646.81;5091617;28;20028;-73
2022/04/29 08:52:07;;;;;;;46.45;27.08;;;;;;;17.27;68.16;101645.78;5096593;28;20039;-73
2022/04/29 09:00:04;;;;;;;40.88;28.17;;;;;;;17.50;65.27;101649.53;5093684;28;20400;-73
2022/04/29 09:02:39;;;;;;;46.17;28.60;;;;;;;17.51;64.93;101643.59;5083830;28;20039;-73
2022/04/29 09:05:08;;;;;;;42.13;29.20;;;;;;;17.50;64.25;101644.75;5087100;28;20085;-73
2022/04/29 09:07:55;;;;;;;43.38;26.98;;;;;;;17.66;65.10;101645.22;5091560;28;20032;-73
2022/04/29 09:10:34;;;;;;;38.80;25.67;;;;;;;17.78;64.90;101644.69;5045989;28;20036;-73
2022/04/29 09:13:11;;;;;;;40.95;26.00;;;;;;;17.83;64.86;101648.25;5084510;28;20063;-73
2022/04/29 09:15:36;;;;;;;41.83;27.33;;;;;;;17.91;63.98;101651.44;5041418;28;20027;-74
2022/04/29 09:18:02;;;;;;;50.65;29.83;;;;;;;17.97;65.94;101641.75;5103843;28;20028;-74
2022/04/29 09:20:28;;;;;;;50.08;29.80;;;;;;;18.06;65.92;101643.50;5112906;28;20034;-73
2022/04/29 09:22:53;;;;;;;42.97;28.38;;;;;;;18.20;64.23;101648.25;5105529;28;20059;-73
2022/04/29 09:25:19;;;;;;;43.60;29.23;;;;;;;18.23;64.15;101640.00;5096151;28;20499;-74
2022/04/29 09:28:01;;;;;;;46.72;29.27;;;;;;;18.33;63.29;101633.31;5095942;28;20388;-74
2022/04/29 09:30:40;;;;;;;43.93;29.50;;;;;;;18.37;62.85;101634.31;5069516;28;20448;-74
2022/04/29 09:33:07;;;;;;;48.30;29.83;;;;;;;18.40;64.80;101644.09;5046563;28;20028;-74
2022/04/29 09:35:42;;;;;;;46.50;30.48;;;;;;;18.37;63.99;101642.75;5089334;28;20115;-75
2022/04/29 09:40:53;;;;;;;43.55;28.90;;;;;;;18.51;62.62;101640.69;5085360;28;20028;-74
2022/04/29 09:43:54;;;;;;;49.33;30.90;;;;;;;18.52;61.68;101645.16;5077985;28;20103;-75
2022/04/29 09:46:22;;;;;;;48.15;30.10;;;;;;;18.57;63.67;101660.25;5051013;28;20029;-75
2022/04/29 09:48:58;;;;;;;46.60;31.95;;;;;;;18.51;62.84;101656.75;5016603;28;20077;-74
2022/04/29 09:51:42;;;;;;;47.45;31.33;;;;;;;18.67;61.29;101646.78;5046564;28;20033;-75
2022/04/29 09:54:08;;;;;;;39.10;29.13;;;;;;;18.74;62.80;101647.16;5033216;28;20048;-75
2022/04/29 09:56:34;;;;;;;41.95;29.40;;;;;;;18.86;62.56;101646.59;5013535;28;20045;-75
2022/04/29 09:58:59;;;;;;;38.22;27.35;;;;;;;19.05;62.42;101642.69;5015257;28;20532;-75
2022/04/29 10:01:25;;;;;;;43.58;29.48;;;;;;;19.15;64.00;101637.59;5030782;28;20521;-74
2022/04/29 10:03:51;;;;;;;47.40;31.17;;;;;;;19.31;62.89;101640.00;5032890;28;20033;-74
2022/04/29 10:06:17;;;;;;;42.53;27.95;;;;;;;19.40;61.52;101638.03;4996129;28;20052;-74
2022/04/29 10:08:42;;;;;;;47.08;31.15;;;;;;;19.48;62.87;101634.41;5016526;28;20501;-75
2022/04/29 10:11:08;;;;;;;47.97;32.50;;;;;;;19.60;61.59;101630.94;4993022;28;20030;-75
2022/04/29 10:13:33;;;;;;;53.92;30.70;;;;;;;19.74;61.73;101640.13;5013243;28;20042;-75
2022/04/29 10:15:59;;;;;;;43.10;29.55;;;;;;;19.82;59.81;101633.66;5004346;28;20092;-75
2022/04/29 10:21:15;;;;;;;43.60;27.73;;;;;;;20.05;59.72;101630.69;5060417;28;20071;-75
2022/04/29 10:23:42;;;;;;;50.78;33.80;;;;;;;20.06;59.32;101632.38;5078849;28;20040;-75
2022/04/29 10:26:08;;;;;;;41.90;30.38;;;;;;;20.16;59.83;101637.66;5092906;28;20036;-75
2022/04/29 10:28:34;;;;;;;44.08;29.70;;;;;;;20.30;58.56;101632.69;5078323;28;20035;-75
2022/04/29 10:31:01;;;;;;;41.25;27.92;;;;;;;20.41;58.17;101626.69;5060920;28;20485;-75
2022/04/29 10:33:26;;;;;;;42.83;29.10;;;;;;;20.46;56.82;101630.19;5077598;28;20028;-77
2022/04/29 10:35:58;;;;;;;41.42;29.92;;;;;;;20.56;57.69;101629.03;5083864;28;20513;-75
2022/04/29 10:38:28;;;;;;;42.08;29.73;;;;;;;20.55;56.75;101623.72;5092869;28;20025;-77
2022/04/29 10:41:13;;;;;;;41.65;28.48;;;;;;;20.71;56.41;101631.31;5053949;28;20492;-76
2022/04/29 10:43:51;;;;;;;48.40;31.98;;;;;;;20.69;55.05;101621.53;5076657;28;20093;-73
2022/04/29 10:46:20;;;;;;;47.15;30.10;;;;;;;20.75;54.96;101621.03;5097155;28;20078;-75
2022/04/29 10:48:46;;;;;;;44.47;31.27;;;;;;;20.66;55.53;101614.56;5077105;28;20055;-73
2022/04/29 10:51:29;;;;;;;48.60;32.45;;;;;;;20.69;56.68;101613.06;5058067;28;20465;-73
2022/04/29 10:53:57;;;;;;;38.38;27.67;;;;;;;20.86;56.47;101618.66;5093911;28;20392;-76
2022/04/29 10:56:28;;;;;;;48.72;32.17;;;;;;;20.72;53.34;101620.84;5081271;28;20048;-74
2022/04/29 10:58:58;;;;;;;43.70;30.60;;;;;;;20.86;54.35;101620.66;5081260;28;20039;-75
2022/04/29 11:01:24;;;;;;;42.33;30.25;;;;;;;20.87;53.62;101619.50;5065503;28;20098;-74
2022/04/29 11:03:49;;;;;;;37.50;27.38;;;;;;;20.94;53.51;101611.31;5100845;28;20055;-74
2022/04/29 11:06:15;;;;;;;43.47;28.52;;;;;;;21.04;53.73;101604.47;5046861;28;20063;-75
2022/04/29 11:08:41;;;;;;;42.78;30.65;;;;;;;21.12;54.03;101606.44;5065621;28;20022;-74
2022/04/29 11:11:07;;;;;;;41.33;29.92;;;;;;;21.19;53.10;101601.91;5046975;28;20032;-74
2022/04/29 11:13:42;;;;;;;45.58;31.58;;;;;;;21.14;52.12;101610.56;5083531;27;20107;-76
2022/04/29 11:16:16;;;;;;;40.95;29.70;;;;;;;21.22;53.44;101610.88;5070575;28;20028;-75
2022/04/29 11:18:43;;;;;;;41.63;29.10;;;;;;;21.15;53.90;101606.59;5105671;28;20092;-74
2022/04/29 11:26:48;;;;;;;45.55;31.30;;;;;;;21.27;54.97;101600.19;5118026;28;20080;-74
2022/04/29 11:29:14;;;;;;;48.05;31.27;;;;;;;21.09;54.04;101601.44;5118751;28;20038;-74
2022/04/29 11:31:40;;;;;;;43.65;31.30;;;;;;;21.17;55.03;101598.59;5100180;28;20407;-74
2022/04/29 11:34:15;;;;;;;45.75;28.30;;;;;;;21.28;54.28;101590.53;5080465;28;20058;-75
2022/04/29 11:36:41;;;;;;;47.53;30.67;;;;;;;21.36;56.24;101591.69;5100227;28;20019;-75
2022/04/29 11:39:19;;;;;;;47.13;31.70;;;;;;;21.40;51.78;101579.38;5100186;28;20033;-74
2022/04/29 11:41:58;;;;;;;39.58;29.15;;;;;;;21.36;53.31;101583.19;5099873;28;20027;-74
2022/04/29 11:44:38;;;;;;;43.15;28.10;;;;;;;21.41;52.90;101577.38;5099882;28;20098;-74
2022/04/29 11:47:04;;;;;;;42.42;31.55;;;;;;;21.49;52.64;101579.34;5100235;28;20032;-75